| time (UTC) | temp F | wind direction | speed MPH | gust MPH | rain 1hr in | rain 24hr in | rain mn in | humidity % | barometer mb |
| 20260508050041 | 57 | 290 | 0.0 | 1.0 | 0.00 | 0.00 | 0.00 | 49 | 1009.8 |
| 20260508044541 | 57 | 290 | 0.0 | 1.0 | 0.00 | 0.00 | 0.00 | 49 | 1009.9 |
| 20260508043056 | 57 | 261 | 0.0 | 4.0 | 0.00 | 0.00 | 0.00 | 51 | 1010.0 |
| 20260508041540 | 58 | 40 | 0.0 | 0.0 | 0.00 | 0.00 | 0.00 | 44 | 1009.9 |
| 20260508040039 | 59 | 40 | 0.0 | 2.0 | 0.00 | 0.00 | 0.00 | 44 | 1010.0 |
| 20260508034540 | 57 | 31 | 1.0 | 3.0 | 0.00 | 0.00 | 0.00 | 44 | 1009.9 |
| 20260508033039 | 57 | 31 | 0.0 | 0.0 | 0.00 | 0.00 | 0.00 | 49 | 1009.8 |
| 20260508031545 | 58 | 31 | 0.0 | 1.0 | 0.00 | 0.00 | 0.00 | 47 | 1009.7 |
| 20260508030049 | 59 | 31 | 0.0 | 0.0 | 0.00 | 0.00 | 0.00 | 43 | 1009.6 |
| 20260508024536 | 59 | 31 | 0.0 | 3.0 | 0.00 | 0.00 | 0.00 | 41 | 1009.5 |
| 20260508023042 | 60 | 31 | 0.0 | 0.0 | 0.00 | 0.00 | 0.00 | 39 | 1009.2 |
| 20260508021538 | 61 | 31 | 0.0 | 1.0 | 0.00 | 0.00 | 0.00 | 40 | 1009.1 |
| 20260508020035 | 64 | 15 | 1.0 | 2.0 | 0.00 | 0.00 | 0.00 | 37 | 1009.1 |
| 20260508014534 | 66 | 15 | 0.0 | 0.0 | 0.00 | 0.00 | 0.00 | 31 | 1008.7 |
| 20260508013033 | 67 | 331 | 3.0 | 8.0 | 0.00 | 0.00 | 0.00 | 28 | 1008.5 |
| 20260508011532 | 67 | 257 | 0.0 | 3.0 | 0.00 | 0.00 | 0.00 | 28 | 1008.8 |
| 20260508010031 | 67 | 78 | 1.0 | 10.0 | 0.00 | 0.00 | 0.00 | 28 | 1008.9 |
| 20260508004529 | 67 | 98 | 6.0 | 11.0 | 0.00 | 0.00 | 0.00 | 27 | 1009.0 |
| 20260508003027 | 68 | 59 | 4.0 | 11.0 | 0.00 | 0.00 | 0.00 | 28 | 1009.3 |
| 20260508001528 | 69 | 88 | 5.0 | 10.0 | 0.00 | 0.00 | 0.00 | 27 | 1009.3 |
| 20260508000024 | 69 | 91 | 6.0 | 11.0 | 0.00 | 0.00 | 0.00 | 25 | 1009.6 |
| 20260507234524 | 69 | 76 | 6.0 | 10.0 | 0.00 | 0.00 | 0.00 | 24 | 1009.6 |
| 20260507233024 | 69 | 53 | 10.0 | 13.0 | 0.00 | 0.00 | 0.00 | 24 | 1009.7 |
| 20260507231526 | 71 | 11 | 3.0 | 7.0 | 0.00 | 0.00 | 0.00 | 22 | 1010.0 |
| 20260507230021 | 72 | 291 | 1.0 | 7.0 | 0.00 | 0.00 | 0.00 | 22 | 1010.1 |
| 20260507224518 | 72 | 198 | 6.0 | 11.0 | 0.00 | 0.00 | 0.00 | 21 | 1010.2 |
| 20260507223017 | 73 | 164 | 4.0 | 11.0 | 0.00 | 0.00 | 0.00 | 21 | 1010.3 |
| 20260507221514 | 72 | 210 | 5.0 | 12.0 | 0.00 | 0.00 | 0.00 | 21 | 1010.7 |
| 20260507220012 | 72 | 105 | 2.0 | 10.0 | 0.00 | 0.03 | 0.00 | 21 | 1011.0 |
| 20260507214508 | 73 | 228 | 0.0 | 5.0 | 0.00 | 0.03 | 0.00 | 21 | 1011.5 |
| 20260507213004 | 71 | 200 | 5.0 | 12.0 | 0.00 | 0.03 | 0.00 | 23 | 1011.8 |
| 20260507211503 | 71 | 222 | 2.0 | 10.0 | 0.00 | 0.03 | 0.00 | 22 | 1012.3 |
| 20260507210100 | 70 | 335 | 1.0 | 7.0 | 0.00 | 0.03 | 0.00 | 23 | 1012.7 |
| 20260507204601 | 70 | 238 | 4.0 | 11.0 | 0.00 | 0.03 | 0.00 | 23 | 1013.2 |
| 20260507203055 | 70 | 205 | 2.0 | 10.0 | 0.00 | 0.03 | 0.00 | 21 | 1013.7 |
| 20260507201601 | 69 | 221 | 3.0 | 8.0 | 0.00 | 0.03 | 0.00 | 22 | 1014.1 |
| 20260507200054 | 69 | 300 | 2.0 | 8.0 | 0.00 | 0.07 | 0.00 | 18 | 1014.5 |
| 20260507194550 | 69 | 267 | 4.0 | 10.0 | 0.00 | 0.07 | 0.00 | 21 | 1014.7 |
| 20260507193042 | 68 | 241 | 3.0 | 10.0 | 0.00 | 0.07 | 0.00 | 20 | 1015.0 |
| 20260507191545 | 67 | 189 | 3.0 | 8.0 | 0.00 | 0.07 | 0.00 | 21 | 1015.2 |
| 20260507190036 | 66 | 257 | 1.0 | 6.0 | 0.00 | 0.12 | 0.00 | 22 | 1015.6 |
| 20260507184536 | 66 | 311 | 3.0 | 12.0 | 0.00 | 0.12 | 0.00 | 24 | 1016.0 |
| 20260507183038 | 65 | 298 | 4.0 | 12.0 | 0.00 | 0.12 | 0.00 | 27 | 1016.4 |
| 20260507181527 | 64 | 257 | 5.0 | 17.0 | 0.00 | 0.12 | 0.00 | 27 | 1016.8 |
| 20260507180024 | 64 | 231 | 7.0 | 16.0 | 0.00 | 0.15 | 0.00 | 29 | 1017.1 |
| 20260507174527 | 63 | 231 | 9.0 | 18.0 | 0.00 | 0.15 | 0.00 | 28 | 1017.4 |
| 20260507173017 | 62 | 215 | 6.0 | 18.0 | 0.00 | 0.15 | 0.00 | 30 | 1017.8 |
| 20260507171519 | 61 | 233 | 11.0 | 18.0 | 0.00 | 0.15 | 0.00 | 28 | 1018.1 |
| 20260507170011 | 60 | 217 | 8.0 | 18.0 | 0.00 | 0.19 | 0.00 | 28 | 1018.4 |
| 20260507164509 | 60 | 244 | 4.0 | 12.0 | 0.00 | 0.19 | 0.00 | 34 | 1018.6 |
| 20260507163003 | 58 | 211 | 7.0 | 20.0 | 0.00 | 0.19 | 0.00 | 35 | 1018.8 |
| 20260507161608 | 57 | 234 | 8.0 | 21.0 | 0.00 | 0.19 | 0.00 | 35 | 1019.0 |
| 20260507160056 | 56 | 240 | 10.0 | 20.0 | 0.00 | 0.23 | 0.00 | 35 | 1019.3 |
| 20260507154552 | 55 | 246 | 7.0 | 19.0 | 0.00 | 0.23 | 0.00 | 38 | 1019.3 |
| 20260507153050 | 54 | 271 | 5.0 | 16.0 | 0.00 | 0.23 | 0.00 | 38 | 1019.6 |
| 20260507151546 | 53 | 252 | 6.0 | 19.0 | 0.00 | 0.23 | 0.00 | 37 | 1019.9 |
| 20260507150046 | 52 | 234 | 6.0 | 16.0 | 0.00 | 0.23 | 0.00 | 39 | 1020.2 |
| 20260507144540 | 52 | 246 | 7.0 | 16.0 | 0.00 | 0.23 | 0.00 | 37 | 1020.1 |
| 20260507143055 | 49 | 188 | 5.0 | 14.0 | 0.00 | 0.23 | 0.00 | 43 | 1020.4 |
| 20260507141547 | 48 | 271 | 3.0 | 12.0 | 0.00 | 0.23 | 0.00 | 49 | 1020.7 |
| 20260507140028 | 46 | 318 | 5.0 | 16.0 | 0.00 | 0.24 | 0.00 | 49 | 1021.0 |
| 20260507134524 | 44 | 310 | 3.0 | 9.0 | 0.00 | 0.24 | 0.00 | 56 | 1021.3 |
| 20260507133020 | 42 | 274 | 3.0 | 9.0 | 0.00 | 0.24 | 0.00 | 57 | 1021.5 |
| 20260507131515 | 41 | 240 | 2.0 | 10.0 | 0.00 | 0.24 | 0.00 | 61 | 1021.7 |
| 20260507130029 | 40 | 279 | 2.0 | 7.0 | 0.00 | 0.24 | 0.00 | 63 | 1021.7 |
| 20260507124511 | 39 | 260 | 0.0 | 8.0 | 0.00 | 0.24 | 0.00 | 64 | 1021.6 |
| 20260507123006 | 39 | 269 | 2.0 | 13.0 | 0.00 | 0.24 | 0.00 | 65 | 1021.6 |
| 20260507121504 | 38 | 315 | 3.0 | 10.0 | 0.00 | 0.24 | 0.00 | 66 | 1021.6 |
| 20260507120001 | 38 | 263 | 2.0 | 10.0 | 0.00 | 0.24 | 0.00 | 67 | 1021.5 |
| 20260507114600 | 37 | 261 | 2.0 | 7.0 | 0.00 | 0.24 | 0.00 | 70 | 1021.4 |
| 20260507113056 | 36 | 252 | 1.0 | 6.0 | 0.00 | 0.24 | 0.00 | 72 | 1021.6 |
| 20260507111555 | 35 | 154 | 0.0 | 8.0 | 0.00 | 0.24 | 0.00 | 75 | 1021.6 |
| 20260507110052 | 35 | 305 | 2.0 | 8.0 | 0.00 | 0.24 | 0.00 | 78 | 1021.5 |
| 20260507104551 | 34 | 286 | 0.0 | 1.0 | 0.00 | 0.24 | 0.00 | 79 | 1021.6 |
| 20260507103045 | 33 | 296 | 0.0 | 6.0 | 0.00 | 0.24 | 0.00 | 83 | 1021.8 |
| 20260507101546 | 32 | 302 | 0.0 | 0.0 | 0.00 | 0.24 | 0.00 | 86 | 1021.9 |
| 20260507100053 | 31 | 302 | 0.0 | 2.0 | 0.00 | 0.24 | 0.00 | 88 | 1022.0 |
| 20260507094541 | 31 | 302 | 0.0 | 0.0 | 0.00 | 0.24 | 0.00 | 88 | 1022.0 |
| 20260507093042 | 31 | 302 | 0.0 | 0.0 | 0.00 | 0.24 | 0.00 | 88 | 1022.2 |
| 20260507091541 | 31 | 302 | 0.0 | 2.0 | 0.00 | 0.24 | 0.00 | 87 | 1022.4 |
| 20260507090044 | 32 | 302 | 0.0 | 0.0 | 0.00 | 0.26 | 0.00 | 87 | 1022.4 |
| 20260507084547 | 32 | 302 | 0.0 | 0.0 | 0.00 | 0.26 | 0.00 | 85 | 1022.5 |
| 20260507083037 | 33 | 302 | 0.0 | 3.0 | 0.00 | 0.26 | 0.00 | 85 | 1022.5 |
| 20260507081536 | 34 | 302 | 0.0 | 4.0 | 0.00 | 0.26 | 0.00 | 86 | 1022.3 |
| 20260507080033 | 32 | 339 | 2.0 | 4.0 | 0.00 | 0.32 | 0.00 | 90 | 1022.6 |
| 20260507074530 | 31 | 20 | 0.0 | 0.0 | 0.00 | 0.32 | 0.00 | 90 | 1022.6 |
| 20260507073032 | 31 | 20 | 1.0 | 3.0 | 0.00 | 0.32 | 0.00 | 91 | 1022.8 |
| 20260507071534 | 32 | 24 | 3.0 | 4.0 | 0.00 | 0.32 | 0.00 | 91 | 1022.5 |
| 20260507070031 | 32 | 339 | 0.0 | 4.0 | 0.00 | 0.34 | 0.00 | 90 | 1022.6 |
| 20260507064535 | 32 | 188 | 0.0 | 0.0 | 0.00 | 0.34 | 0.00 | 91 | 1022.7 |
| 20260507063022 | 32 | 188 | 0.0 | 0.0 | 0.00 | 0.34 | 0.00 | 90 | 1022.7 |
| 20260507061520 | 32 | 188 | 0.0 | 0.0 | 0.00 | 0.34 | 0.00 | 90 | 1022.7 |
| 20260507060018 | 32 | 188 | 0.0 | 0.0 | 0.00 | 0.35 | 0.34 | 89 | 1022.5 |
| 20260507054518 | 33 | 188 | 0.0 | 0.0 | 0.00 | 0.35 | 0.34 | 88 | 1022.5 |
| 20260507053017 | 33 | 188 | 0.0 | 0.0 | 0.00 | 0.35 | 0.34 | 88 | 1022.5 |
| 20260507051517 | 34 | 188 | 0.0 | 0.0 | 0.00 | 0.35 | 0.34 | 88 | 1022.4 |